Leet, West Virginia
Current Conditions -  °F | °C
As of 6:50 AM on Tuesday 21 Oct 2014 (Local Time) from KSJS Reporting Station
Broken Clouds Broken Clouds  
Wind Chill: 11°   Ceiling: 6500
Heat Index: 11°   Visibility: 10mi
Dew Point:   Wind: 3mph
Humidity: 92%   Direction: 240°WSW
Pressure: 29.94"   Gusts: NA
Location:  37.9989°N, 82.1851°W
Report Text: KSJS 211050Z AUTO 24003KT 10SM BKN065 11/09 A2994 RMK AO2 T01070094
Loading
Personal Weather Stations






























Interactive Weather Map
Tropical Storm Tracking
New forecast layout! Learn more

10-Day Weather Forecast

Advertisements
Track Severe Weather on mobile